sensor_id;sensor_type;location;lat;lon;timestamp;pressure;altitude;pressure_sealevel;temperature;humidity
16595;BME280;8410;52.532;13.336;2023-03-16T00:00:21;101647.81;;;6.15;74.36
16595;BME280;8410;52.532;13.336;2023-03-16T00:02:48;101643.88;;;6.04;75.91
16595;BME280;8410;52.532;13.336;2023-03-16T00:05:16;101652.00;;;6.71;73.22
16595;BME280;8410;52.532;13.336;2023-03-16T00:07:44;101657.38;;;6.38;72.60
16595;BME280;8410;52.532;13.336;2023-03-16T00:10:12;101663.91;;;6.12;72.99
16595;BME280;8410;52.532;13.336;2023-03-16T00:12:40;101671.34;;;5.72;73.10
16595;BME280;8410;52.532;13.336;2023-03-16T00:15:09;101672.88;;;5.50;74.03
16595;BME280;8410;52.532;13.336;2023-03-16T00:17:36;101666.63;;;5.62;73.91
16595;BME280;8410;52.532;13.336;2023-03-16T00:20:05;101654.09;;;5.48;74.33
16595;BME280;8410;52.532;13.336;2023-03-16T00:22:33;101668.16;;;5.40;75.46
16595;BME280;8410;52.532;13.336;2023-03-16T00:25:01;101668.31;;;5.43;74.77
16595;BME280;8410;52.532;13.336;2023-03-16T00:27:29;101669.00;;;5.23;75.25
16595;BME280;8410;52.532;13.336;2023-03-16T00:29:57;101671.78;;;5.27;74.92
16595;BME280;8410;52.532;13.336;2023-03-16T00:32:27;101667.41;;;5.25;75.12
16595;BME280;8410;52.532;13.336;2023-03-16T00:34:55;101679.34;;;5.08;74.53
16595;BME280;8410;52.532;13.336;2023-03-16T00:37:24;101674.84;;;5.20;74.20
16595;BME280;8410;52.532;13.336;2023-03-16T00:39:52;101673.38;;;5.25;75.26
16595;BME280;8410;52.532;13.336;2023-03-16T00:42:25;101679.44;;;4.93;75.15
16595;BME280;8410;52.532;13.336;2023-03-16T00:44:53;101687.28;;;4.31;76.70
16595;BME280;8410;52.532;13.336;2023-03-16T00:47:23;101681.94;;;4.59;76.94
16595;BME280;8410;52.532;13.336;2023-03-16T00:49:51;101676.94;;;4.77;76.72
16595;BME280;8410;52.532;13.336;2023-03-16T00:52:18;101689.66;;;3.80;77.67
16595;BME280;8410;52.532;13.336;2023-03-16T00:54:48;101681.00;;;4.73;77.46
16595;BME280;8410;52.532;13.336;2023-03-16T00:57:17;101683.31;;;4.69;75.46
16595;BME280;8410;52.532;13.336;2023-03-16T00:59:47;101681.22;;;4.78;75.13
16595;BME280;8410;52.532;13.336;2023-03-16T01:02:16;101681.81;;;5.06;74.11
16595;BME280;8410;52.532;13.336;2023-03-16T01:04:45;101685.38;;;4.76;74.13
16595;BME280;8410;52.532;13.336;2023-03-16T01:07:13;101677.97;;;5.15;74.84
16595;BME280;8410;52.532;13.336;2023-03-16T01:09:41;101689.84;;;4.47;74.14
16595;BME280;8410;52.532;13.336;2023-03-16T01:12:11;101685.63;;;4.64;74.60
16595;BME280;8410;52.532;13.336;2023-03-16T01:14:39;101693.69;;;4.08;75.54
16595;BME280;8410;52.532;13.336;2023-03-16T01:17:08;101699.88;;;4.28;74.84
16595;BME280;8410;52.532;13.336;2023-03-16T01:19:36;101696.81;;;4.18;75.67
16595;BME280;8410;52.532;13.336;2023-03-16T01:22:04;101688.97;;;4.47;76.60
16595;BME280;8410;52.532;13.336;2023-03-16T01:24:32;101684.09;;;4.51;75.48
16595;BME280;8410;52.532;13.336;2023-03-16T01:27:01;101698.78;;;4.08;78.01
16595;BME280;8410;52.532;13.336;2023-03-16T01:29:30;101682.66;;;4.73;74.73
16595;BME280;8410;52.532;13.336;2023-03-16T01:31:58;101680.47;;;4.62;75.47
16595;BME280;8410;52.532;13.336;2023-03-16T01:34:27;101688.56;;;4.72;73.89
16595;BME280;8410;52.532;13.336;2023-03-16T01:36:54;101681.69;;;4.87;73.18
16595;BME280;8410;52.532;13.336;2023-03-16T01:39:22;101689.91;;;4.81;74.04
16595;BME280;8410;52.532;13.336;2023-03-16T01:41:50;101682.41;;;4.35;75.79
16595;BME280;8410;52.532;13.336;2023-03-16T01:44:19;101679.66;;;4.63;75.11
16595;BME280;8410;52.532;13.336;2023-03-16T01:46:49;101688.34;;;4.03;75.99
16595;BME280;8410;52.532;13.336;2023-03-16T01:49:18;101681.34;;;4.47;74.11
16595;BME280;8410;52.532;13.336;2023-03-16T01:51:52;101686.59;;;4.50;73.76
16595;BME280;8410;52.532;13.336;2023-03-16T01:54:25;101677.91;;;4.62;74.83
16595;BME280;8410;52.532;13.336;2023-03-16T01:56:59;101687.59;;;4.53;74.78
16595;BME280;8410;52.532;13.336;2023-03-16T01:59:33;101685.47;;;4.61;75.48
16595;BME280;8410;52.532;13.336;2023-03-16T02:02:02;101681.88;;;4.74;76.82
16595;BME280;8410;52.532;13.336;2023-03-16T02:04:42;101676.44;;;4.68;75.76
16595;BME280;8410;52.532;13.336;2023-03-16T02:07:14;101687.13;;;3.80;75.76
16595;BME280;8410;52.532;13.336;2023-03-16T02:09:44;101690.84;;;3.87;77.05
16595;BME280;8410;52.532;13.336;2023-03-16T02:12:13;101678.94;;;4.33;75.78
16595;BME280;8410;52.532;13.336;2023-03-16T02:14:44;101682.31;;;4.01;75.57
16595;BME280;8410;52.532;13.336;2023-03-16T02:17:13;101675.47;;;4.16;76.00
16595;BME280;8410;52.532;13.336;2023-03-16T02:19:47;101674.25;;;4.57;74.95
16595;BME280;8410;52.532;13.336;2023-03-16T02:22:19;101678.38;;;4.23;74.43
16595;BME280;8410;52.532;13.336;2023-03-16T02:24:50;101672.81;;;4.62;73.63
16595;BME280;8410;52.532;13.336;2023-03-16T02:27:23;101672.63;;;4.59;74.14
16595;BME280;8410;52.532;13.336;2023-03-16T02:29:59;101672.75;;;4.95;72.32
16595;BME280;8410;52.532;13.336;2023-03-16T02:32:29;101670.88;;;4.58;73.27
16595;BME280;8410;52.532;13.336;2023-03-16T02:34:58;101675.47;;;4.16;75.10
16595;BME280;8410;52.532;13.336;2023-03-16T02:37:27;101681.75;;;4.89;72.52
16595;BME280;8410;52.532;13.336;2023-03-16T02:39:55;101677.31;;;4.84;72.55
16595;BME280;8410;52.532;13.336;2023-03-16T02:42:24;101674.53;;;4.80;72.88
16595;BME280;8410;52.532;13.336;2023-03-16T02:44:56;101674.25;;;4.57;72.14
16595;BME280;8410;52.532;13.336;2023-03-16T02:47:29;101671.75;;;4.59;74.13
16595;BME280;8410;52.532;13.336;2023-03-16T02:49:58;101677.88;;;4.79;72.26
16595;BME280;8410;52.532;13.336;2023-03-16T02:52:26;101679.41;;;4.59;72.66
16595;BME280;8410;52.532;13.336;2023-03-16T02:54:53;101685.22;;;4.40;73.60
16595;BME280;8410;52.532;13.336;2023-03-16T02:57:20;101679.50;;;4.60;73.43
16595;BME280;8410;52.532;13.336;2023-03-16T02:59:48;101678.50;;;4.75;72.31
16595;BME280;8410;52.532;13.336;2023-03-16T03:02:17;101688.25;;;4.66;72.17
16595;BME280;8410;52.532;13.336;2023-03-16T03:04:44;101684.59;;;4.60;72.79
16595;BME280;8410;52.532;13.336;2023-03-16T03:07:12;101693.69;;;4.55;72.19
16595;BME280;8410;52.532;13.336;2023-03-16T03:09:41;101692.78;;;4.71;72.77
16595;BME280;8410;52.532;13.336;2023-03-16T03:12:09;101699.75;;;4.57;73.13
16595;BME280;8410;52.532;13.336;2023-03-16T03:14:38;101701.47;;;4.58;72.73
16595;BME280;8410;52.532;13.336;2023-03-16T03:17:07;101699.56;;;4.71;72.24
16595;BME280;8410;52.532;13.336;2023-03-16T03:19:36;101712.28;;;4.38;72.65
16595;BME280;8410;52.532;13.336;2023-03-16T03:22:04;101706.66;;;4.60;73.49
16595;BME280;8410;52.532;13.336;2023-03-16T03:24:33;101706.56;;;4.75;72.39
16595;BME280;8410;52.532;13.336;2023-03-16T03:27:00;101712.00;;;4.64;71.94
16595;BME280;8410;52.532;13.336;2023-03-16T03:29:31;101718.31;;;4.55;72.09
16595;BME280;8410;52.532;13.336;2023-03-16T03:32:00;101719.22;;;4.40;71.77
16595;BME280;8410;52.532;13.336;2023-03-16T03:34:28;101718.38;;;4.56;73.22
16595;BME280;8410;52.532;13.336;2023-03-16T03:36:57;101724.75;;;4.48;73.22
16595;BME280;8410;52.532;13.336;2023-03-16T03:39:25;101717.44;;;4.71;72.50
16595;BME280;8410;52.532;13.336;2023-03-16T03:41:52;101720.13;;;4.57;72.47
16595;BME280;8410;52.532;13.336;2023-03-16T03:44:20;101719.16;;;4.39;73.15
16595;BME280;8410;52.532;13.336;2023-03-16T03:46:48;101723.00;;;4.63;72.28
16595;BME280;8410;52.532;13.336;2023-03-16T03:49:16;101718.44;;;4.41;73.08
16595;BME280;8410;52.532;13.336;2023-03-16T03:51:44;101722.84;;;4.44;72.13
16595;BME280;8410;52.532;13.336;2023-03-16T03:54:13;101718.06;;;4.50;73.64
16595;BME280;8410;52.532;13.336;2023-03-16T03:56:41;101721.22;;;4.30;74.00
16595;BME280;8410;52.532;13.336;2023-03-16T03:59:08;101720.34;;;4.46;73.42
16595;BME280;8410;52.532;13.336;2023-03-16T04:01:36;101723.91;;;4.33;72.94
16595;BME280;8410;52.532;13.336;2023-03-16T04:04:03;101725.53;;;4.31;73.66
16595;BME280;8410;52.532;13.336;2023-03-16T04:06:31;101718.50;;;4.43;73.73
16595;BME280;8410;52.532;13.336;2023-03-16T04:08:58;101724.75;;;4.48;72.61
16595;BME280;8410;52.532;13.336;2023-03-16T04:11:27;101716.34;;;4.34;73.79
16595;BME280;8410;52.532;13.336;2023-03-16T04:13:55;101716.13;;;4.46;72.79
16595;BME280;8410;52.532;13.336;2023-03-16T04:16:22;101717.72;;;4.28;72.79
16595;BME280;8410;52.532;13.336;2023-03-16T04:18:52;101718.66;;;4.46;73.24
16595;BME280;8410;52.532;13.336;2023-03-16T04:21:20;101723.09;;;3.86;74.29
16595;BME280;8410;52.532;13.336;2023-03-16T04:23:49;101721.38;;;3.70;74.39
16595;BME280;8410;52.532;13.336;2023-03-16T04:26:20;101716.09;;;4.13;74.63
16595;BME280;8410;52.532;13.336;2023-03-16T04:28:49;101713.34;;;4.41;73.63
16595;BME280;8410;52.532;13.336;2023-03-16T04:31:17;101719.31;;;4.42;73.04
16595;BME280;8410;52.532;13.336;2023-03-16T04:33:45;101721.34;;;4.16;73.53
16595;BME280;8410;52.532;13.336;2023-03-16T04:36:13;101721.13;;;4.12;74.11
16595;BME280;8410;52.532;13.336;2023-03-16T04:38:40;101716.72;;;4.09;74.54
16595;BME280;8410;52.532;13.336;2023-03-16T04:41:08;101722.28;;;4.02;74.87
16595;BME280;8410;52.532;13.336;2023-03-16T04:43:36;101729.63;;;4.12;74.46
16595;BME280;8410;52.532;13.336;2023-03-16T04:46:05;101729.16;;;3.73;74.95
16595;BME280;8410;52.532;13.336;2023-03-16T04:48:33;101726.69;;;3.90;74.88
16595;BME280;8410;52.532;13.336;2023-03-16T04:51:01;101735.03;;;3.87;75.29
16595;BME280;8410;52.532;13.336;2023-03-16T04:53:29;101728.38;;;4.20;73.66
16595;BME280;8410;52.532;13.336;2023-03-16T04:55:58;101725.38;;;4.28;73.75
16595;BME280;8410;52.532;13.336;2023-03-16T04:58:25;101731.34;;;4.28;73.39
16595;BME280;8410;52.532;13.336;2023-03-16T05:00:54;101722.75;;;4.11;73.93
16595;BME280;8410;52.532;13.336;2023-03-16T05:03:23;101739.25;;;3.87;74.43
16595;BME280;8410;52.532;13.336;2023-03-16T05:05:50;101736.78;;;4.19;74.35
16595;BME280;8410;52.532;13.336;2023-03-16T05:08:18;101747.34;;;4.26;73.32
16595;BME280;8410;52.532;13.336;2023-03-16T05:10:45;101736.78;;;4.19;73.27
16595;BME280;8410;52.532;13.336;2023-03-16T05:13:13;101742.97;;;4.08;73.60
16595;BME280;8410;52.532;13.336;2023-03-16T05:15:41;101742.22;;;4.09;73.99
16595;BME280;8410;52.532;13.336;2023-03-16T05:18:08;101737.19;;;4.11;74.44
16595;BME280;8410;52.532;13.336;2023-03-16T05:20:37;101738.06;;;4.11;74.51
16595;BME280;8410;52.532;13.336;2023-03-16T05:23:05;101742.72;;;3.58;74.01
16595;BME280;8410;52.532;13.336;2023-03-16T05:25:33;101741.72;;;4.16;74.51
16595;BME280;8410;52.532;13.336;2023-03-16T05:28:01;101742.56;;;4.32;73.56
16595;BME280;8410;52.532;13.336;2023-03-16T05:30:28;101743.78;;;4.38;73.20
16595;BME280;8410;52.532;13.336;2023-03-16T05:32:56;101750.19;;;4.15;72.67
16595;BME280;8410;52.532;13.336;2023-03-16T05:35:24;101753.63;;;4.32;72.76
16595;BME280;8410;52.532;13.336;2023-03-16T05:37:53;101749.41;;;4.33;73.28
16595;BME280;8410;52.532;13.336;2023-03-16T05:40:20;101747.22;;;4.39;73.10
16595;BME280;8410;52.532;13.336;2023-03-16T05:42:53;101750.50;;;4.22;73.28
16595;BME280;8410;52.532;13.336;2023-03-16T05:45:21;101751.59;;;4.10;73.33
16595;BME280;8410;52.532;13.336;2023-03-16T05:47:49;101756.28;;;4.34;73.39
16595;BME280;8410;52.532;13.336;2023-03-16T05:50:17;101759.25;;;4.41;72.64
16595;BME280;8410;52.532;13.336;2023-03-16T05:52:45;101761.25;;;4.47;72.48
16595;BME280;8410;52.532;13.336;2023-03-16T05:55:16;101766.59;;;4.52;72.67
16595;BME280;8410;52.532;13.336;2023-03-16T05:57:44;101778.25;;;4.32;71.95
16595;BME280;8410;52.532;13.336;2023-03-16T06:00:13;101772.56;;;4.52;73.38
16595;BME280;8410;52.532;13.336;2023-03-16T06:02:42;101774.16;;;4.50;72.08
16595;BME280;8410;52.532;13.336;2023-03-16T06:05:12;101772.56;;;4.52;73.21
16595;BME280;8410;52.532;13.336;2023-03-16T06:07:40;101768.09;;;4.64;72.21
16595;BME280;8410;52.532;13.336;2023-03-16T06:10:09;101773.19;;;4.64;72.06
16595;BME280;8410;52.532;13.336;2023-03-16T06:12:38;101774.31;;;4.53;73.07
16595;BME280;8410;52.532;13.336;2023-03-16T06:15:07;101770.34;;;4.58;72.50
16595;BME280;8410;52.532;13.336;2023-03-16T06:17:37;101770.19;;;4.72;73.32
16595;BME280;8410;52.532;13.336;2023-03-16T06:20:08;101767.22;;;4.80;72.71
16595;BME280;8410;52.532;13.336;2023-03-16T06:22:38;101774.56;;;4.58;72.68
16595;BME280;8410;52.532;13.336;2023-03-16T06:25:07;101782.88;;;4.86;72.68
16595;BME280;8410;52.532;13.336;2023-03-16T06:27:35;101784.06;;;4.77;71.09
16595;BME280;8410;52.532;13.336;2023-03-16T06:30:06;101776.72;;;4.99;71.50
16595;BME280;8410;52.532;13.336;2023-03-16T06:32:34;101779.25;;;5.16;71.18
16595;BME280;8410;52.532;13.336;2023-03-16T06:35:04;101791.66;;;5.08;71.13
16595;BME280;8410;52.532;13.336;2023-03-16T06:37:31;101786.69;;;5.11;70.77
16595;BME280;8410;52.532;13.336;2023-03-16T06:39:59;101785.00;;;5.12;70.65
16595;BME280;8410;52.532;13.336;2023-03-16T06:42:27;101785.81;;;5.11;71.36
16595;BME280;8410;52.532;13.336;2023-03-16T06:44:54;101786.28;;;5.20;71.42
16595;BME280;8410;52.532;13.336;2023-03-16T06:47:23;101790.75;;;5.24;70.94
16595;BME280;8410;52.532;13.336;2023-03-16T06:49:52;101795.13;;;5.43;71.22
16595;BME280;8410;52.532;13.336;2023-03-16T06:52:20;101800.91;;;5.57;69.98
16595;BME280;8410;52.532;13.336;2023-03-16T06:54:48;101810.47;;;5.61;69.50
16595;BME280;8410;52.532;13.336;2023-03-16T06:57:16;101807.94;;;5.44;69.91
16595;BME280;8410;52.532;13.336;2023-03-16T06:59:43;101806.50;;;5.49;70.72
16595;BME280;8410;52.532;13.336;2023-03-16T07:02:12;101806.50;;;5.49;70.38
16595;BME280;8410;52.532;13.336;2023-03-16T07:04:41;101808.56;;;5.57;69.76
16595;BME280;8410;52.532;13.336;2023-03-16T07:07:09;101811.09;;;5.73;69.69
16595;BME280;8410;52.532;13.336;2023-03-16T07:09:37;101815.59;;;5.79;70.00
16595;BME280;8410;52.532;13.336;2023-03-16T07:12:07;101821.50;;;5.60;70.48
16595;BME280;8410;52.532;13.336;2023-03-16T07:14:35;101820.28;;;5.87;69.18
16595;BME280;8410;52.532;13.336;2023-03-16T07:17:03;101825.25;;;5.84;68.93
16595;BME280;8410;52.532;13.336;2023-03-16T07:19:31;101824.59;;;6.05;68.47
16595;BME280;8410;52.532;13.336;2023-03-16T07:22:02;101821.06;;;6.03;67.99
16595;BME280;8410;52.532;13.336;2023-03-16T07:24:30;101823.34;;;5.96;68.41
16595;BME280;8410;52.532;13.336;2023-03-16T07:26:58;101830.06;;;6.12;68.13
16595;BME280;8410;52.532;13.336;2023-03-16T07:29:25;101830.88;;;6.29;67.57
16595;BME280;8410;52.532;13.336;2023-03-16T07:31:52;101826.25;;;6.40;66.95
16595;BME280;8410;52.532;13.336;2023-03-16T07:34:20;101832.69;;;6.50;66.11
16595;BME280;8410;52.532;13.336;2023-03-16T07:36:47;101838.03;;;6.36;65.66
16595;BME280;8410;52.532;13.336;2023-03-16T07:39:19;101846.47;;;6.35;66.07
16595;BME280;8410;52.532;13.336;2023-03-16T07:41:46;101842.47;;;6.58;64.96
16595;BME280;8410;52.532;13.336;2023-03-16T07:44:14;101836.84;;;6.48;63.95
16595;BME280;8410;52.532;13.336;2023-03-16T07:46:41;101835.16;;;6.48;64.67
16595;BME280;8410;52.532;13.336;2023-03-16T07:49:09;101836.97;;;6.69;64.89
16595;BME280;8410;52.532;13.336;2023-03-16T07:51:37;101836.63;;;6.80;63.17
16595;BME280;8410;52.532;13.336;2023-03-16T07:54:05;101840.06;;;6.81;63.93
16595;BME280;8410;52.532;13.336;2023-03-16T07:56:34;101839.34;;;7.03;63.79
16595;BME280;8410;52.532;13.336;2023-03-16T07:59:14;101842.81;;;6.66;64.36
16595;BME280;8410;52.532;13.336;2023-03-16T08:01:41;101845.47;;;6.87;64.05
16595;BME280;8410;52.532;13.336;2023-03-16T08:04:09;101838.06;;;6.93;64.63
16595;BME280;8410;52.532;13.336;2023-03-16T08:06:38;101844.88;;;7.12;63.28
16595;BME280;8410;52.532;13.336;2023-03-16T08:09:05;101846.75;;;7.16;63.46
16595;BME280;8410;52.532;13.336;2023-03-16T08:11:34;101840.78;;;6.59;62.28
16595;BME280;8410;52.532;13.336;2023-03-16T08:14:02;101846.34;;;7.07;63.80
16595;BME280;8410;52.532;13.336;2023-03-16T08:16:30;101831.69;;;7.22;62.95
16595;BME280;8410;52.532;13.336;2023-03-16T08:18:58;101844.53;;;7.24;62.19
16595;BME280;8410;52.532;13.336;2023-03-16T08:21:26;101836.22;;;7.49;62.37
16595;BME280;8410;52.532;13.336;2023-03-16T08:23:55;101836.22;;;7.49;60.84
16595;BME280;8410;52.532;13.336;2023-03-16T08:26:23;101835.81;;;7.40;61.24
16595;BME280;8410;52.532;13.336;2023-03-16T08:28:53;101837.84;;;7.47;60.85
16595;BME280;8410;52.532;13.336;2023-03-16T08:31:21;101842.81;;;7.84;60.80
16595;BME280;8410;52.532;13.336;2023-03-16T08:33:48;101851.25;;;7.82;61.53
16595;BME280;8410;52.532;13.336;2023-03-16T08:36:17;101847.88;;;7.62;60.21
16595;BME280;8410;52.532;13.336;2023-03-16T08:38:46;101847.94;;;7.63;61.40
16595;BME280;8410;52.532;13.336;2023-03-16T08:41:31;101848.13;;;8.10;59.27
16595;BME280;8410;52.532;13.336;2023-03-16T08:44:01;101848.69;;;7.82;60.49
16595;BME280;8410;52.532;13.336;2023-03-16T08:46:28;101849.56;;;7.82;60.70
16595;BME280;8410;52.532;13.336;2023-03-16T08:48:56;101845.41;;;8.05;59.50
16595;BME280;8410;52.532;13.336;2023-03-16T08:51:24;101846.50;;;8.12;58.33
16595;BME280;8410;52.532;13.336;2023-03-16T08:53:51;101854.50;;;7.78;57.77
16595;BME280;8410;52.532;13.336;2023-03-16T08:56:19;101861.28;;;7.97;56.84
16595;BME280;8410;52.532;13.336;2023-03-16T08:58:46;101863.91;;;7.98;55.82
16595;BME280;8410;52.532;13.336;2023-03-16T09:01:18;101853.16;;;7.86;55.53
16595;BME280;8410;52.532;13.336;2023-03-16T09:03:46;101863.63;;;8.34;56.87
16595;BME280;8410;52.532;13.336;2023-03-16T09:06:15;101863.50;;;8.52;54.95
16595;BME280;8410;52.532;13.336;2023-03-16T09:08:43;101857.38;;;8.27;54.70
16595;BME280;8410;52.532;13.336;2023-03-16T09:11:13;101868.41;;;8.25;56.44
16595;BME280;8410;52.532;13.336;2023-03-16T09:13:41;101862.66;;;8.09;56.39
16595;BME280;8410;52.532;13.336;2023-03-16T09:16:11;101869.41;;;8.49;54.81
16595;BME280;8410;52.532;13.336;2023-03-16T09:18:40;101871.66;;;8.21;54.95
16595;BME280;8410;52.532;13.336;2023-03-16T09:21:10;101874.78;;;8.55;54.06
16595;BME280;8410;52.532;13.336;2023-03-16T09:23:39;101871.03;;;8.92;53.42
16595;BME280;8410;52.532;13.336;2023-03-16T09:26:09;101871.03;;;8.92;53.40
16595;BME280;8410;52.532;13.336;2023-03-16T09:28:38;101874.78;;;8.55;52.39
16595;BME280;8410;52.532;13.336;2023-03-16T09:31:08;101876.41;;;8.98;52.72
16595;BME280;8410;52.532;13.336;2023-03-16T09:33:36;101877.81;;;8.68;52.90
16595;BME280;8410;52.532;13.336;2023-03-16T09:36:06;101873.47;;;9.12;52.62
16595;BME280;8410;52.532;13.336;2023-03-16T09:38:36;101875.16;;;9.11;52.45
16595;BME280;8410;52.532;13.336;2023-03-16T09:41:07;101880.59;;;8.74;52.69
16595;BME280;8410;52.532;13.336;2023-03-16T09:43:44;101877.31;;;9.00;52.22
16595;BME280;8410;52.532;13.336;2023-03-16T09:46:19;101876.44;;;9.22;50.71
16595;BME280;8410;52.532;13.336;2023-03-16T09:48:52;101878.84;;;9.18;50.82
16595;BME280;8410;52.532;13.336;2023-03-16T09:51:34;101876.44;;;9.46;50.41
16595;BME280;8410;52.532;13.336;2023-03-16T09:54:11;101879.88;;;9.00;50.53
16595;BME280;8410;52.532;13.336;2023-03-16T09:56:42;101882.66;;;9.29;49.89
16595;BME280;8410;52.532;13.336;2023-03-16T09:59:11;101877.88;;;9.38;50.11
16595;BME280;8410;52.532;13.336;2023-03-16T10:01:48;101873.22;;;9.54;48.92
16595;BME280;8410;52.532;13.336;2023-03-16T10:04:30;101877.28;;;9.71;48.69
16595;BME280;8410;52.532;13.336;2023-03-16T10:07:17;101874.66;;;9.45;47.39
16595;BME280;8410;52.532;13.336;2023-03-16T10:09:53;101868.31;;;9.60;46.96
16595;BME280;8410;52.532;13.336;2023-03-16T10:12:24;101867.59;;;9.64;46.87
16595;BME280;8410;52.532;13.336;2023-03-16T10:14:58;101873.47;;;9.12;46.66
16595;BME280;8410;52.532;13.336;2023-03-16T10:17:35;101869.88;;;9.31;46.04
16595;BME280;8410;52.532;13.336;2023-03-16T10:20:09;101871.50;;;8.59;46.69
16595;BME280;8410;52.532;13.336;2023-03-16T10:22:43;101868.38;;;9.13;44.48
16595;BME280;8410;52.532;13.336;2023-03-16T10:25:17;101872.16;;;9.23;46.87
16595;BME280;8410;52.532;13.336;2023-03-16T10:27:46;101868.31;;;9.85;45.58
16595;BME280;8410;52.532;13.336;2023-03-16T10:30:21;101860.09;;;9.96;44.29
16595;BME280;8410;52.532;13.336;2023-03-16T10:32:50;101864.78;;;9.32;46.20
16595;BME280;8410;52.532;13.336;2023-03-16T10:35:28;101857.84;;;9.79;46.70
16595;BME280;8410;52.532;13.336;2023-03-16T10:37:58;101848.47;;;9.81;46.42
16595;BME280;8410;52.532;13.336;2023-03-16T10:40:30;101859.31;;;8.54;47.59
16595;BME280;8410;52.532;13.336;2023-03-16T10:43:04;101850.63;;;9.69;48.04
16595;BME280;8410;52.532;13.336;2023-03-16T10:45:34;101846.19;;;9.90;46.75
16595;BME280;8410;52.532;13.336;2023-03-16T10:48:06;101842.28;;;10.02;47.23
16595;BME280;8410;52.532;13.336;2023-03-16T10:50:34;101848.69;;;9.87;46.76
16595;BME280;8410;52.532;13.336;2023-03-16T10:53:03;101843.41;;;10.37;46.31
16595;BME280;8410;52.532;13.336;2023-03-16T10:55:40;101839.38;;;10.18;45.74
16595;BME280;8410;52.532;13.336;2023-03-16T10:58:08;101841.38;;;9.74;46.06
16595;BME280;8410;52.532;13.336;2023-03-16T11:00:41;101854.66;;;9.13;45.95
16595;BME280;8410;52.532;13.336;2023-03-16T11:03:19;101844.84;;;9.50;47.38
16595;BME280;8410;52.532;13.336;2023-03-16T11:05:55;101843.19;;;10.04;44.62
16595;BME280;8410;52.532;13.336;2023-03-16T11:08:26;101847.75;;;9.60;45.18
16595;BME280;8410;52.532;13.336;2023-03-16T11:10:59;101842.97;;;10.23;44.83
16595;BME280;8410;52.532;13.336;2023-03-16T11:13:32;101843.31;;;9.56;45.28
16595;BME280;8410;52.532;13.336;2023-03-16T11:16:02;101832.47;;;9.90;45.68
16595;BME280;8410;52.532;13.336;2023-03-16T11:18:34;101834.91;;;10.40;45.25
16595;BME280;8410;52.532;13.336;2023-03-16T11:21:07;101832.63;;;10.77;43.63
16595;BME280;8410;52.532;13.336;2023-03-16T11:23:45;101830.09;;;10.23;43.52
16595;BME280;8410;52.532;13.336;2023-03-16T11:26:20;101832.13;;;9.79;43.88
16595;BME280;8410;52.532;13.336;2023-03-16T11:28:52;101831.81;;;9.44;45.33
16595;BME280;8410;52.532;13.336;2023-03-16T11:31:36;101831.63;;;9.14;46.31
16595;BME280;8410;52.532;13.336;2023-03-16T11:34:14;101831.81;;;10.50;45.67
16595;BME280;8410;52.532;13.336;2023-03-16T11:36:46;101822.94;;;10.99;44.40
16595;BME280;8410;52.532;13.336;2023-03-16T11:39:27;101825.72;;;10.76;43.63
16595;BME280;8410;52.532;13.336;2023-03-16T11:42:12;101809.88;;;11.24;42.82
16595;BME280;8410;52.532;13.336;2023-03-16T11:44:43;101809.41;;;10.76;43.21
16595;BME280;8410;52.532;13.336;2023-03-16T11:47:31;101804.94;;;10.70;43.61
16595;BME280;8410;52.532;13.336;2023-03-16T11:50:09;101803.94;;;10.95;43.94
16595;BME280;8410;52.532;13.336;2023-03-16T11:52:46;101801.56;;;11.03;43.55
16595;BME280;8410;52.532;13.336;2023-03-16T11:55:24;101793.25;;;11.13;44.28
16595;BME280;8410;52.532;13.336;2023-03-16T11:58:02;101792.59;;;10.89;45.50
16595;BME280;8410;52.532;13.336;2023-03-16T12:00:47;101797.22;;;10.14;45.16
16595;BME280;8410;52.532;13.336;2023-03-16T12:03:29;101794.13;;;9.98;46.52
16595;BME280;8410;52.532;13.336;2023-03-16T12:06:01;101792.72;;;10.63;46.79
16595;BME280;8410;52.532;13.336;2023-03-16T12:09:03;101780.53;;;10.88;45.75
16595;BME280;8410;52.532;13.336;2023-03-16T12:11:43;101775.72;;;11.32;44.67
16595;BME280;8410;52.532;13.336;2023-03-16T12:14:20;101782.09;;;10.24;43.87
16595;BME280;8410;52.532;13.336;2023-03-16T12:16:53;101769.84;;;10.44;44.47
16595;BME280;8410;52.532;13.336;2023-03-16T12:19:27;101766.34;;;11.02;43.38
16595;BME280;8410;52.532;13.336;2023-03-16T12:22:02;101774.25;;;9.41;42.84
16595;BME280;8410;52.532;13.336;2023-03-16T12:24:38;101768.00;;;10.40;43.31
16595;BME280;8410;52.532;13.336;2023-03-16T12:27:11;101764.91;;;11.13;42.20
16595;BME280;8410;52.532;13.336;2023-03-16T12:29:49;101769.34;;;11.17;41.54
16595;BME280;8410;52.532;13.336;2023-03-16T12:32:32;101766.59;;;11.46;41.43
16595;BME280;8410;52.532;13.336;2023-03-16T12:35:15;101765.34;;;11.63;42.12
16595;BME280;8410;52.532;13.336;2023-03-16T12:37:54;101759.53;;;10.44;43.17
16595;BME280;8410;52.532;13.336;2023-03-16T12:40:31;101759.09;;;10.89;42.42
16595;BME280;8410;52.532;13.336;2023-03-16T12:43:22;101756.66;;;10.63;41.55
16595;BME280;8410;52.532;13.336;2023-03-16T12:45:59;101757.91;;;11.09;40.66
16595;BME280;8410;52.532;13.336;2023-03-16T12:48:31;101749.25;;;10.44;38.15
16595;BME280;8410;52.532;13.336;2023-03-16T12:51:01;101750.94;;;9.87;39.73
16595;BME280;8410;52.532;13.336;2023-03-16T12:53:42;101752.97;;;10.26;39.97
16595;BME280;8410;52.532;13.336;2023-03-16T12:56:11;101736.25;;;10.69;40.99
16595;BME280;8410;52.532;13.336;2023-03-16T12:58:44;101738.13;;;11.07;39.90
16595;BME280;8410;52.532;13.336;2023-03-16T13:01:15;101726.72;;;11.32;39.75
16595;BME280;8410;52.532;13.336;2023-03-16T13:03:46;101735.19;;;10.32;41.11
16595;BME280;8410;52.532;13.336;2023-03-16T13:06:20;101734.38;;;10.06;41.62
16595;BME280;8410;52.532;13.336;2023-03-16T13:08:51;101737.00;;;9.54;41.73
16595;BME280;8410;52.532;13.336;2023-03-16T13:11:21;101727.03;;;9.63;42.91
16595;BME280;8410;52.532;13.336;2023-03-16T13:14:03;101713.44;;;10.53;41.75
16595;BME280;8410;52.532;13.336;2023-03-16T13:16:33;101713.03;;;10.37;41.67